Staples, MN

10:50 AM CDT on October 18, 2017 (GMT -0500)
Staples Municipal

Weather History for KSAZ - December, 2012

Change the Weather History Date:

Monday, December 31, 2012

  Actual Average Record
Temperature  
Mean Temperature -1 °F -  
Max Temperature 12 °F 17 °F 37 °F (2006)
Min Temperature -14 °F 2 °F -27 °F (2008)
Degree Days  
Heating Degree Days 66    
Moisture  
Dew Point -7 °F    
Average Humidity 80    
Maximum Humidity 92    
Minimum Humidity 66    
Precipitation  
Precipitation 0.00 in - - ()
Sea Level Pressure  
Sea Level Pressure 30.15 in    
Wind  
Wind Speed 8 mph (WNW)    
Max Wind Speed 15 mph    
Max Gust Speed 20 mph    
Visibility 10 miles    
Events Snow    
Averages and records for this station are not official NWS values.
T = Trace of Precipitation, MM = Missing Value Source: NWS Daily Summary

Daily Weather History Graph

Daily Weather History Graph

Search for Another Location

Airport or City:

Trip Planner

Search our weather history database for the weather conditions in past years. The results will help you decide how hot, cold, wet, or windy it might be!

Date:

Astronomy

Dec. 31, 2012 Rise Set
Actual Time 8:02 AM CST 4:42 PM CST
Civil Twilight 7:27 AM CST 5:17 PM CST
Nautical Twilight 6:49 AM CST 5:55 PM CST
Astronomical Twilight 6:13 AM CST 6:32 PM CST
Moon 8:27 PM CST (12/31) 9:32 AM CST (12/31)
Length of Visible Light 9h 49m
Length of Day
8h 40m
Waning Gibbous, 90% of the Moon is Illuminated
Dec 31
Waning Gibbous
Jan 4
Last Quarter
Jan 11
New
Jan 18
First Quarter
Jan 26
Full

Hourly Weather History & Observations

Time (CST) Temp. Windchill Dew Point Humidity Pressure Visibility Wind Dir Wind Speed Gust Speed Precip Events Conditions
12:13 AM 10.4 °F -3.3 °F 5.0 °F 79% 30.00 in 10.0 mi NW 10.4 mph - N/A   Mostly Cloudy
12:34 AM 10.4 °F -2.4 °F 6.8 °F 85% 30.00 in 10.0 mi NW 9.2 mph - N/A   Overcast
12:53 AM 10.4 °F -3.3 °F 6.8 °F 85% 29.99 in 10.0 mi NW 10.4 mph - N/A Snow Light Snow
1:13 AM 10.4 °F -4.8 °F 6.8 °F 85% 30.00 in 10.0 mi NNW 12.7 mph 18.4 mph N/A   Overcast
1:34 AM 12.2 °F -3.7 °F 6.8 °F 79% 30.00 in 10.0 mi NNW 15.0 mph 18.4 mph N/A   Overcast
1:53 AM 12.2 °F -3.1 °F 6.8 °F 79% 30.01 in 10.0 mi NW 13.8 mph - N/A   Overcast
2:13 AM 12.2 °F -3.1 °F 6.8 °F 79% 30.02 in 10.0 mi WNW 13.8 mph - N/A Snow Light Snow
2:34 AM 10.4 °F -5.4 °F 6.8 °F 85% 30.03 in 10.0 mi NW 13.8 mph - N/A   Mostly Cloudy
2:53 AM 10.4 °F -4.8 °F 3.2 °F 73% 30.05 in 10.0 mi NW 12.7 mph - N/A   Scattered Clouds
3:13 AM 8.6 °F -7.0 °F 3.2 °F 79% 30.07 in 10.0 mi NW 12.7 mph 19.6 mph N/A   Scattered Clouds
3:34 AM 6.8 °F -9.3 °F 1.4 °F 79% 30.08 in 10.0 mi WNW 12.7 mph 16.1 mph N/A   Clear
3:53 AM 6.8 °F -8.6 °F -0.4 °F 72% 30.08 in 10.0 mi NW 11.5 mph - N/A   Clear
4:13 AM 3.2 °F -12.2 °F -0.4 °F 85% 30.09 in 10.0 mi NW 10.4 mph - N/A   Clear
4:34 AM 1.4 °F -14.5 °F -4.0 °F 78% 30.09 in 10.0 mi NW 10.4 mph - N/A   Clear
4:53 AM 1.4 °F -14.5 °F -4.0 °F 78% 30.10 in 10.0 mi NW 10.4 mph - N/A   Clear
5:13 AM -0.4 °F -15.7 °F -5.8 °F 78% 30.10 in 10.0 mi NW 9.2 mph - N/A   Clear
5:33 AM -0.4 °F -15.7 °F -5.8 °F 78% 30.11 in 10.0 mi WNW 9.2 mph - N/A   Clear
6:14 AM -2.2 °F -16.8 °F -7.6 °F 78% 30.12 in 10.0 mi NW 8.1 mph - N/A   Clear
6:33 AM -5.8 °F -21.2 °F -9.4 °F 84% 30.13 in 10.0 mi NW 8.1 mph - N/A   Clear
6:53 AM -4.0 °F -19.0 °F -7.6 °F 85% 30.14 in 10.0 mi NW 8.1 mph - N/A   Clear
7:14 AM -5.8 °F -19.9 °F -9.4 °F 84% 30.14 in 10.0 mi NW 6.9 mph - N/A   Clear
7:33 AM -5.8 °F -19.9 °F -9.4 °F 84% 30.15 in 10.0 mi NW 6.9 mph - N/A   Clear
7:53 AM -9.4 °F -24.3 °F -11.2 °F 92% 30.15 in 10.0 mi NW 6.9 mph - N/A   Clear
8:14 AM -9.4 °F -25.6 °F -13.0 °F 84% 30.15 in 10.0 mi NW 8.1 mph - N/A   Clear
8:33 AM -9.4 °F -22.7 °F -13.0 °F 84% 30.15 in 10.0 mi NW 5.8 mph - N/A   Clear
8:53 AM -9.4 °F -20.9 °F -13.0 °F 84% 30.16 in 10.0 mi WNW 4.6 mph - N/A   Clear
9:14 AM -7.6 °F -16.5 °F -11.2 °F 84% 30.16 in 10.0 mi WNW 3.5 mph - N/A   Clear
9:33 AM -7.6 °F -18.8 °F -11.2 °F 84% 30.17 in 10.0 mi NW 4.6 mph - N/A   Clear
9:53 AM -5.8 °F -18.4 °F -9.4 °F 84% 30.18 in 10.0 mi NW 5.8 mph - N/A   Clear
10:14 AM -5.8 °F -16.7 °F -9.4 °F 84% 30.19 in 10.0 mi NW 4.6 mph - N/A   Clear
10:33 AM -2.2 °F -10.4 °F -9.4 °F 71% 30.19 in 10.0 mi NW 3.5 mph - N/A   Clear
10:53 AM -2.2 °F -10.4 °F -7.6 °F 78% 30.20 in 10.0 mi West 3.5 mph - N/A   Clear
11:14 AM -2.2 °F -12.5 °F -7.6 °F 78% 30.20 in 10.0 mi West 4.6 mph - N/A   Clear
11:33 AM -0.4 °F -13.4 °F -7.6 °F 72% 30.20 in 10.0 mi West 6.9 mph - N/A   Clear
11:54 AM -0.4 °F -14.7 °F -7.6 °F 72% 30.19 in 10.0 mi WNW 8.1 mph - N/A   Clear
12:13 PM -0.4 °F -13.4 °F -5.8 °F 78% 30.19 in 10.0 mi West 6.9 mph - N/A   Clear
12:33 PM 1.4 °F -9.9 °F -5.8 °F 72% 30.17 in 10.0 mi West 5.8 mph - N/A   Clear
12:53 PM 1.4 °F -9.9 °F -5.8 °F 72% 30.16 in 10.0 mi WNW 5.8 mph - N/A   Clear
1:13 PM 1.4 °F -11.3 °F -5.8 °F 72% 30.16 in 10.0 mi WNW 6.9 mph - N/A   Clear
1:34 PM 3.2 °F -9.1 °F -5.8 °F 66% 30.16 in 10.0 mi WNW 6.9 mph - N/A   Clear
1:53 PM 3.2 °F -10.3 °F -5.8 °F 66% 30.16 in 10.0 mi WNW 8.1 mph - N/A   Clear
2:13 PM 3.2 °F -10.3 °F -5.8 °F 66% 30.16 in 10.0 mi NW 8.1 mph - N/A   Clear
2:34 PM 3.2 °F -7.8 °F -5.8 °F 66% 30.17 in 10.0 mi WNW 5.8 mph - N/A   Clear
2:53 PM 3.2 °F -7.8 °F -5.8 °F 66% 30.17 in 10.0 mi WNW 5.8 mph - N/A   Clear
3:13 PM 3.2 °F -6.2 °F -5.8 °F 66% 30.17 in 10.0 mi NW 4.6 mph - N/A   Clear
3:34 PM 3.2 °F -6.2 °F -5.8 °F 66% 30.17 in 10.0 mi West 4.6 mph - N/A   Clear
3:53 PM 1.4 °F -11.3 °F -5.8 °F 72% 30.17 in 10.0 mi West 6.9 mph - N/A   Clear
4:13 PM 1.4 °F -9.9 °F -5.8 °F 72% 30.18 in 10.0 mi West 5.8 mph - N/A   Clear
4:34 PM -0.4 °F -12.0 °F -5.8 °F 78% 30.19 in 10.0 mi West 5.8 mph - N/A   Clear
4:53 PM -0.4 °F -10.4 °F -5.8 °F 78% 30.19 in 10.0 mi West 4.6 mph - N/A   Clear
5:13 PM -4.0 °F -12.4 °F -7.6 °F 85% 30.19 in 10.0 mi WSW 3.5 mph - N/A   Clear
5:34 PM -4.0 °F -16.3 °F -9.4 °F 78% 30.20 in 10.0 mi West 5.8 mph - N/A   Clear
5:59 PM -5.8 °F -16.7 °F -9.4 °F 84% 30.19 in 10.0 mi West 4.6 mph - N/A   Clear
6:34 PM -7.6 °F -20.6 °F -9.4 °F 92% 30.20 in 10.0 mi West 5.8 mph - N/A   Clear
6:53 PM -9.4 °F -24.3 °F -11.2 °F 92% 30.20 in 10.0 mi West 6.9 mph - N/A   Clear
7:13 PM -7.6 °F -18.8 °F -9.4 °F 92% 30.20 in 10.0 mi West 4.6 mph - N/A   Clear
7:33 PM -9.4 °F -22.7 °F -11.2 °F 92% 30.20 in 10.0 mi West 5.8 mph - N/A   Clear
7:53 PM -11.2 °F -23.0 °F -14.8 °F 84% 30.20 in 10.0 mi West 4.6 mph - N/A   Clear
8:14 PM -9.4 °F - -11.2 °F 92% 30.20 in 10.0 mi Calm Calm - N/A   Clear
8:33 PM -7.6 °F - -9.4 °F 92% 30.20 in 10.0 mi Calm Calm - N/A   Clear
8:53 PM -11.2 °F -23.0 °F -14.8 °F 84% 30.20 in 10.0 mi West 4.6 mph - N/A   Clear
9:14 PM -11.2 °F -20.6 °F -14.8 °F 84% 30.19 in 10.0 mi West 3.5 mph - N/A   Clear
9:33 PM -11.2 °F -20.6 °F -14.8 °F 84% 30.19 in 10.0 mi West 3.5 mph - N/A   Clear
10:13 PM -11.2 °F - -16.6 °F 77% 30.20 in 10.0 mi Calm Calm - N/A   Clear
10:33 PM -9.4 °F - -14.8 °F 77% 30.20 in 10.0 mi Calm Calm - N/A   Clear
11:13 PM -11.2 °F - -14.8 °F 84% 30.21 in 10.0 mi Calm Calm - N/A   Clear
11:34 PM -14.8 °F - -18.4 °F 84% 30.21 in 10.0 mi Calm Calm - N/A   Clear
11:53 PM -13.0 °F - -16.6 °F 84% 30.20 in 10.0 mi Calm Calm - N/A   Clear